WMT136 LIPZ-LHBP
Flight info
| Callsign | WMT136 |
|---|---|
| Flight time | N/A |
| Altitude | 35000 |
| Route | ROSKA DCT ROTAR DCT RJK DCT KOPRY DCT ULZAK |
| Aircraft | A21N/M-SDE1E2E3FGIJ1J4RWXY/LB1 |
Departure
| Time | 2026-05-06 21:18 |
|---|---|
| Airport | Venice Marco Polo Airport (LIPZ) |
Arrival
| Time | N/A |
|---|---|
| Airport | Budapest Liszt Ferenc International Airport (LHBP) |
| Time | Latitude | Longitude | Altitude | Speed | Heading |
|---|---|---|---|---|---|
| 2026-05-06 20:39 | 45.50178 | 12.34070 | 23 ft | 0 kts | 312° |
| 2026-05-06 21:07 | 45.50177 | 12.34072 | 21 ft | 2 kts | 312° |
| 2026-05-06 21:07 | 45.50159 | 12.34100 | 21 ft | 4 kts | 312° |
| 2026-05-06 21:07 | 45.50145 | 12.34123 | 23 ft | 4 kts | 302° |
| 2026-05-06 21:07 | 45.50140 | 12.34151 | 22 ft | 4 kts | 240° |
| 2026-05-06 21:08 | 45.50144 | 12.34160 | 21 ft | 3 kts | 222° |
| 2026-05-06 21:08 | 45.50138 | 12.34152 | 21 ft | 0 kts | 222° |
| 2026-05-06 21:12 | 45.50127 | 12.34138 | 21 ft | 3 kts | 222° |
| 2026-05-06 21:12 | 45.50093 | 12.34095 | 23 ft | 9 kts | 222° |
| 2026-05-06 21:13 | 45.50031 | 12.34060 | 21 ft | 11 kts | 176° |
| 2026-05-06 21:13 | 45.49956 | 12.34065 | 19 ft | 9 kts | 178° |
| 2026-05-06 21:13 | 45.49888 | 12.34034 | 20 ft | 12 kts | 219° |
| 2026-05-06 21:13 | 45.49832 | 12.33966 | 19 ft | 11 kts | 220° |
| 2026-05-06 21:14 | 45.49768 | 12.33885 | 21 ft | 14 kts | 223° |
| 2026-05-06 21:14 | 45.49692 | 12.33784 | 22 ft | 16 kts | 223° |
| 2026-05-06 21:14 | 45.49605 | 12.33672 | 23 ft | 17 kts | 222° |
| 2026-05-06 21:14 | 45.49544 | 12.33603 | 23 ft | 9 kts | 199° |
| 2026-05-06 21:15 | 45.49511 | 12.33607 | 22 ft | 0 kts | 156° |
| 2026-05-06 21:16 | 45.49505 | 12.33612 | 22 ft | 4 kts | 148° |
| 2026-05-06 21:16 | 45.49471 | 12.33658 | 23 ft | 9 kts | 133° |
| 2026-05-06 21:17 | 45.49428 | 12.33733 | 22 ft | 11 kts | 113° |
| 2026-05-06 21:17 | 45.49455 | 12.33828 | 22 ft | 9 kts | 44° |
| 2026-05-06 21:17 | 45.49518 | 12.33912 | 20 ft | 30 kts | 42° |
| 2026-05-06 21:17 | 45.49878 | 12.34371 | 18 ft | 106 kts | 42° |
| 2026-05-06 21:18 | 45.50573 | 12.35264 | 19 ft | 164 kts | 42° |
| 2026-05-06 21:18 | 45.51437 | 12.36401 | 538 ft | 167 kts | 43° |
| 2026-05-06 21:18 | 45.52265 | 12.37602 | 1212 ft | 169 kts | 47° |
| 2026-05-06 21:18 | 45.53083 | 12.38867 | 1770 ft | 179 kts | 51° |
| 2026-05-06 21:19 | 45.53622 | 12.40513 | 2315 ft | 192 kts | 83° |
| 2026-05-06 21:19 | 45.53520 | 12.42434 | 2932 ft | 203 kts | 99° |
| 2026-05-06 21:19 | 45.53273 | 12.44477 | 3606 ft | 215 kts | 99° |
| 2026-05-06 21:19 | 45.53027 | 12.46679 | 4173 ft | 233 kts | 99° |
| 2026-05-06 21:20 | 45.52780 | 12.48998 | 4976 ft | 239 kts | 99° |
| 2026-05-06 21:20 | 45.52534 | 12.51350 | 5872 ft | 242 kts | 99° |
| 2026-05-06 21:20 | 45.52253 | 12.53729 | 6714 ft | 245 kts | 106° |
| 2026-05-06 21:20 | 45.51464 | 12.55888 | 7350 ft | 254 kts | 132° |
| 2026-05-06 21:21 | 45.50213 | 12.57797 | 7829 ft | 273 kts | 136° |
| 2026-05-06 21:21 | 45.48853 | 12.59774 | 8468 ft | 284 kts | 136° |
| 2026-05-06 21:21 | 45.47470 | 12.61812 | 9270 ft | 289 kts | 136° |
| 2026-05-06 21:21 | 45.46073 | 12.63904 | 10088 ft | 294 kts | 135° |
| 2026-05-06 21:22 | 45.44633 | 12.66076 | 10576 ft | 311 kts | 135° |
| 2026-05-06 21:22 | 45.43111 | 12.68383 | 11040 ft | 326 kts | 135° |
| 2026-05-06 21:22 | 45.41547 | 12.70759 | 11740 ft | 332 kts | 135° |
| 2026-05-06 21:22 | 45.39961 | 12.73165 | 12541 ft | 335 kts | 135° |
| 2026-05-06 21:23 | 45.38359 | 12.75597 | 13331 ft | 338 kts | 135° |
| 2026-05-06 21:23 | 45.36750 | 12.78045 | 14097 ft | 341 kts | 135° |
| 2026-05-06 21:23 | 45.35118 | 12.80514 | 14832 ft | 344 kts | 135° |
| 2026-05-06 21:23 | 45.33467 | 12.83017 | 15569 ft | 348 kts | 135° |
| 2026-05-06 21:24 | 45.31821 | 12.85567 | 16273 ft | 353 kts | 132° |
| 2026-05-06 21:24 | 45.30460 | 12.88498 | 16952 ft | 359 kts | 121° |
| 2026-05-06 21:24 | 45.29264 | 12.91623 | 17631 ft | 363 kts | 120° |
| 2026-05-06 21:24 | 45.28063 | 12.94799 | 18301 ft | 366 kts | 121° |
| 2026-05-06 21:25 | 45.26892 | 12.98026 | 18940 ft | 371 kts | 116° |
| 2026-05-06 21:25 | 45.26205 | 13.01582 | 19530 ft | 379 kts | 98° |
| 2026-05-06 21:25 | 45.26074 | 13.05352 | 20124 ft | 385 kts | 93° |
| 2026-05-06 21:25 | 45.26032 | 13.09165 | 20705 ft | 389 kts | 93° |
| 2026-05-06 21:26 | 45.25989 | 13.13020 | 21267 ft | 392 kts | 93° |
| 2026-05-06 21:26 | 45.25932 | 13.16915 | 21803 ft | 397 kts | 93° |
| 2026-05-06 21:26 | 45.25861 | 13.20840 | 22329 ft | 400 kts | 94° |
| 2026-05-06 21:26 | 45.25782 | 13.24807 | 22837 ft | 404 kts | 94° |
| 2026-05-06 21:27 | 45.25699 | 13.28822 | 23340 ft | 408 kts | 94° |
| 2026-05-06 21:27 | 45.25616 | 13.32858 | 23822 ft | 412 kts | 94° |
| 2026-05-06 21:27 | 45.25529 | 13.36944 | 24302 ft | 415 kts | 94° |
| 2026-05-06 21:27 | 45.25438 | 13.41059 | 24781 ft | 419 kts | 94° |
| 2026-05-06 21:28 | 45.25343 | 13.45204 | 25236 ft | 422 kts | 94° |
| 2026-05-06 21:28 | 45.25252 | 13.49373 | 25680 ft | 425 kts | 94° |
| 2026-05-06 21:28 | 45.25169 | 13.53569 | 26127 ft | 427 kts | 94° |
| 2026-05-06 21:28 | 45.25066 | 13.57807 | 26559 ft | 430 kts | 94° |
| 2026-05-06 21:29 | 45.24959 | 13.62053 | 26976 ft | 433 kts | 94° |
| 2026-05-06 21:29 | 45.24861 | 13.66337 | 27362 ft | 435 kts | 94° |
| 2026-05-06 21:29 | 45.24762 | 13.70642 | 27764 ft | 438 kts | 94° |
| 2026-05-06 21:29 | 45.24662 | 13.74975 | 28150 ft | 441 kts | 94° |
| 2026-05-06 21:30 | 45.24557 | 13.79337 | 28536 ft | 443 kts | 94° |
| 2026-05-06 21:30 | 45.24445 | 13.83713 | 28896 ft | 446 kts | 94° |
| 2026-05-06 21:30 | 45.24331 | 13.88122 | 29250 ft | 448 kts | 94° |
| 2026-05-06 21:30 | 45.24212 | 13.92486 | 29581 ft | 450 kts | 94° |
| 2026-05-06 21:31 | 45.24093 | 13.96928 | 29912 ft | 452 kts | 94° |
| 2026-05-06 21:31 | 45.23972 | 14.01397 | 30228 ft | 454 kts | 94° |
| 2026-05-06 21:31 | 45.23848 | 14.05876 | 30545 ft | 456 kts | 94° |
| 2026-05-06 21:31 | 45.23728 | 14.10389 | 30845 ft | 458 kts | 94° |
| 2026-05-06 21:32 | 45.23605 | 14.14904 | 31136 ft | 460 kts | 94° |
| 2026-05-06 21:32 | 45.23350 | 14.23998 | 31823 ft | 461 kts | 94° |
| 2026-05-06 21:32 | 45.23211 | 14.28537 | 32202 ft | 459 kts | 94° |
| 2026-05-06 21:33 | 45.23074 | 14.33112 | 32547 ft | 459 kts | 94° |
| 2026-05-06 21:33 | 45.22943 | 14.37578 | 32880 ft | 458 kts | 94° |
| 2026-05-06 21:33 | 45.22808 | 14.42090 | 33195 ft | 457 kts | 94° |
| 2026-05-06 21:33 | 45.22677 | 14.46588 | 33498 ft | 457 kts | 94° |
| 2026-05-06 21:34 | 45.22583 | 14.51093 | 33797 ft | 457 kts | 91° |
| 2026-05-06 21:34 | 45.22920 | 14.55572 | 34059 ft | 459 kts | 79° |
| 2026-05-06 21:34 | 45.23908 | 14.59883 | 34312 ft | 461 kts | 66° |
| 2026-05-06 21:34 | 45.25466 | 14.63861 | 34560 ft | 461 kts | 58° |
| 2026-05-06 21:35 | 45.27187 | 14.67685 | 34841 ft | 460 kts | 57° |
| 2026-05-06 21:35 | 45.28918 | 14.71509 | 34979 ft | 459 kts | 57° |
| 2026-05-06 21:35 | 45.32314 | 14.79152 | 34976 ft | 457 kts | 58° |
| 2026-05-06 21:36 | 45.35662 | 14.86814 | 34963 ft | 456 kts | 58° |
| 2026-05-06 21:36 | 45.39010 | 14.94470 | 34963 ft | 456 kts | 58° |
| 2026-05-06 21:37 | 45.42336 | 15.02145 | 34959 ft | 455 kts | 58° |
| 2026-05-06 21:37 | 45.45678 | 15.09797 | 34947 ft | 455 kts | 58° |
| 2026-05-06 21:38 | 45.48977 | 15.17493 | 34941 ft | 455 kts | 58° |
| 2026-05-06 21:38 | 45.52288 | 15.25198 | 34951 ft | 455 kts | 58° |
| 2026-05-06 21:39 | 45.55610 | 15.32880 | 34951 ft | 455 kts | 58° |
| 2026-05-06 21:39 | 45.58944 | 15.40543 | 34944 ft | 454 kts | 58° |
| 2026-05-06 21:40 | 45.61698 | 15.46928 | 34938 ft | 454 kts | 58° |
| 2026-05-06 21:40 | 45.64985 | 15.54618 | 34937 ft | 453 kts | 58° |
| 2026-05-06 21:41 | 45.68268 | 15.62313 | 34936 ft | 453 kts | 58° |
| 2026-05-06 21:41 | 45.71550 | 15.69995 | 34938 ft | 453 kts | 58° |
| 2026-05-06 21:42 | 45.74819 | 15.77695 | 34935 ft | 453 kts | 58° |
| 2026-05-06 21:42 | 45.78081 | 15.85403 | 34945 ft | 452 kts | 58° |
| 2026-05-06 21:43 | 45.81332 | 15.93119 | 34931 ft | 452 kts | 58° |
| 2026-05-06 21:43 | 45.84579 | 16.00830 | 34930 ft | 452 kts | 58° |
| 2026-05-06 21:44 | 45.87827 | 16.08553 | 34929 ft | 452 kts | 58° |
| 2026-05-06 21:44 | 45.91035 | 16.16234 | 34929 ft | 452 kts | 58° |
| 2026-05-06 21:45 | 45.94270 | 16.23974 | 34930 ft | 452 kts | 59° |
| 2026-05-06 21:45 | 45.97499 | 16.31724 | 34939 ft | 452 kts | 59° |
| 2026-05-06 21:46 | 46.00718 | 16.39482 | 34931 ft | 452 kts | 59° |
| 2026-05-06 21:46 | 46.03938 | 16.47260 | 34934 ft | 452 kts | 59° |
| 2026-05-06 21:47 | 46.07145 | 16.55033 | 34931 ft | 452 kts | 59° |
| 2026-05-06 21:47 | 46.10347 | 16.62815 | 34923 ft | 452 kts | 59° |
| 2026-05-06 21:48 | 46.13545 | 16.70609 | 34922 ft | 452 kts | 59° |
| 2026-05-06 21:48 | 46.16738 | 16.78405 | 34920 ft | 452 kts | 59° |
| 2026-05-06 21:49 | 46.19929 | 16.86210 | 34921 ft | 452 kts | 59° |
| 2026-05-06 21:49 | 46.21482 | 16.90031 | 34969 ft | 427 kts | 59° |
| 2026-05-06 21:49 | 46.22792 | 16.93289 | 35303 ft | 381 kts | 59° |